createdAt,value
2022-11-03T00:02:16.578Z,13.10
2022-11-03T00:04:44.534Z,12.20
2022-11-03T00:07:12.470Z,12.10
2022-11-03T00:09:40.241Z,13.90
2022-11-03T00:12:08.435Z,11.60
2022-11-03T00:14:36.166Z,11.50
2022-11-03T00:17:03.945Z,11.60
2022-11-03T00:19:31.700Z,11.70
2022-11-03T00:21:59.669Z,11.90
2022-11-03T00:24:27.433Z,10.90
2022-11-03T00:26:55.198Z,9.80
2022-11-03T00:29:25.047Z,12.90
2022-11-03T00:31:52.793Z,12.20
2022-11-03T00:34:20.525Z,11.70
2022-11-03T00:36:48.299Z,11.60
2022-11-03T00:39:16.029Z,11.50
2022-11-03T00:41:43.726Z,12.30
2022-11-03T00:44:13.503Z,11.10
2022-11-03T00:46:41.299Z,10.90
2022-11-03T00:49:09.003Z,10.80
2022-11-03T00:51:36.767Z,11.10
2022-11-03T00:54:06.037Z,11.70
2022-11-03T00:56:36.449Z,12.00
2022-11-03T00:59:06.088Z,11.60
2022-11-03T01:01:45.164Z,12.10
2022-11-03T01:04:36.300Z,10.40
2022-11-03T01:07:05.975Z,10.70
2022-11-03T01:09:33.874Z,11.80
2022-11-03T01:12:14.439Z,11.80
2022-11-03T01:14:53.121Z,11.80
2022-11-03T01:17:23.691Z,11.00
2022-11-03T01:19:52.190Z,11.00
2022-11-03T01:22:21.573Z,11.20
2022-11-03T01:24:51.831Z,12.50
2022-11-03T01:27:25.184Z,12.50
2022-11-03T01:29:53.154Z,12.80
2022-11-03T01:32:21.020Z,11.10
2022-11-03T01:34:48.989Z,10.90
2022-11-03T01:37:16.752Z,11.90
2022-11-03T01:39:44.490Z,12.80
2022-11-03T01:42:14.664Z,11.90
2022-11-03T01:44:48.419Z,12.40
2022-11-03T01:47:26.170Z,12.40
2022-11-03T01:50:07.755Z,11.60
2022-11-03T01:52:45.013Z,11.40
2022-11-03T01:55:29.672Z,12.40
2022-11-03T01:58:05.991Z,11.40
2022-11-03T02:00:35.134Z,12.70
2022-11-03T02:03:04.506Z,12.40
2022-11-03T02:05:32.902Z,11.60
2022-11-03T02:08:10.521Z,10.60
2022-11-03T02:10:38.822Z,10.60
2022-11-03T02:13:19.754Z,10.90
2022-11-03T02:15:49.938Z,11.20
2022-11-03T02:18:22.657Z,10.50
2022-11-03T02:21:03.505Z,9.60
2022-11-03T02:23:46.438Z,10.30
2022-11-03T02:26:16.269Z,9.80
2022-11-03T02:28:44.506Z,9.90
2022-11-03T02:31:35.622Z,9.40
2022-11-03T02:34:15.082Z,9.40
2022-11-03T02:36:56.668Z,10.40
2022-11-03T02:39:36.006Z,9.90
2022-11-03T02:42:05.397Z,10.10
2022-11-03T02:44:34.577Z,9.70
2022-11-03T02:47:08.356Z,8.40
2022-11-03T02:49:40.758Z,9.70
2022-11-03T02:52:41.940Z,9.20
2022-11-03T02:55:23.105Z,8.50
2022-11-03T02:58:00.703Z,9.40
2022-11-03T03:00:31.421Z,8.80
2022-11-03T03:03:11.589Z,8.70
2022-11-03T03:05:42.733Z,9.10
2022-11-03T03:08:12.462Z,9.00
2022-11-03T03:10:46.849Z,8.80
2022-11-03T03:13:18.487Z,8.40
2022-11-03T03:15:46.142Z,9.40
2022-11-03T03:18:31.244Z,9.30
2022-11-03T03:21:05.041Z,10.10
2022-11-03T03:23:37.017Z,8.40
2022-11-03T03:26:07.469Z,9.40
2022-11-03T03:28:48.513Z,8.00
2022-11-03T03:31:19.762Z,9.10
2022-11-03T03:33:53.266Z,11.70
2022-11-03T03:36:27.313Z,9.70
2022-11-03T03:39:02.691Z,9.30
2022-11-03T03:41:32.715Z,9.60
2022-11-03T03:44:06.109Z,10.60
2022-11-03T03:46:41.158Z,9.70
2022-11-03T03:49:09.472Z,10.00
2022-11-03T03:51:38.629Z,9.60
2022-11-03T03:54:06.525Z,8.90
2022-11-03T03:56:41.739Z,9.50
2022-11-03T03:59:09.505Z,9.40
2022-11-03T04:01:37.340Z,9.00
2022-11-03T04:04:05.424Z,9.00
2022-11-03T04:06:33.215Z,8.60
2022-11-03T04:09:00.962Z,9.10
2022-11-03T04:11:47.673Z,8.90
2022-11-03T04:14:34.481Z,9.50
2022-11-03T04:17:20.983Z,8.90
2022-11-03T04:20:07.386Z,9.80
2022-11-03T04:22:35.556Z,10.70
2022-11-03T04:25:03.495Z,9.30
2022-11-03T04:27:36.639Z,10.60
2022-11-03T04:30:10.257Z,10.20
2022-11-03T04:35:22.741Z,10.10
2022-11-03T04:38:02.091Z,9.90
2022-11-03T04:40:29.922Z,10.50
2022-11-03T04:42:58.011Z,9.30
2022-11-03T04:45:30.282Z,11.60
2022-11-03T04:48:00.347Z,9.90
2022-11-03T04:50:28.164Z,10.20
2022-11-03T04:52:58.591Z,10.80
2022-11-03T04:55:27.006Z,10.00
2022-11-03T04:58:02.708Z,9.90
2022-11-03T05:00:30.423Z,10.20
2022-11-03T05:02:58.452Z,11.80
2022-11-03T05:05:26.946Z,11.00
2022-11-03T05:07:57.056Z,11.10
2022-11-03T05:10:29.342Z,10.10
2022-11-03T05:12:57.690Z,10.20
2022-11-03T05:15:34.986Z,11.20
2022-11-03T05:18:16.074Z,10.90
2022-11-03T05:20:54.373Z,11.30
2022-11-03T05:23:23.227Z,12.60
2022-11-03T05:25:53.894Z,10.90
2022-11-03T05:28:26.522Z,11.60
2022-11-03T05:30:55.056Z,11.10
2022-11-03T05:33:29.473Z,11.80
2022-11-03T05:36:00.922Z,12.80
2022-11-03T05:38:33.265Z,12.20
2022-11-03T05:41:01.571Z,11.50
2022-11-03T05:43:30.076Z,12.60
2022-11-03T05:46:02.323Z,11.70
2022-11-03T05:48:35.354Z,12.10
2022-11-03T05:51:22.627Z,11.80
2022-11-03T05:54:03.939Z,11.60
2022-11-03T05:56:33.250Z,12.10
2022-11-03T05:59:02.325Z,11.30
2022-11-03T06:01:35.626Z,11.70
2022-11-03T06:06:41.171Z,11.70
2022-11-03T06:09:17.873Z,13.30
2022-11-03T06:11:46.315Z,12.10
2022-11-03T06:14:28.212Z,13.60
2022-11-03T06:17:08.261Z,13.20
2022-11-03T06:19:42.478Z,13.80
2022-11-03T06:22:24.715Z,14.20
2022-11-03T06:24:57.355Z,13.50
2022-11-03T06:27:28.394Z,12.20
2022-11-03T06:30:19.505Z,12.50
2022-11-03T06:32:47.371Z,13.40
2022-11-03T06:35:15.585Z,13.50
2022-11-03T06:37:44.585Z,13.30
2022-11-03T06:40:15.279Z,14.20
2022-11-03T06:42:43.444Z,13.60
2022-11-03T06:45:24.213Z,14.30
2022-11-03T06:47:55.334Z,14.50
2022-11-03T06:50:23.008Z,14.20
2022-11-03T06:52:52.215Z,13.70
2022-11-03T06:55:26.530Z,14.60
2022-11-03T06:58:00.582Z,12.80
2022-11-03T07:00:34.685Z,12.90
2022-11-03T07:03:11.224Z,12.30
2022-11-03T07:05:39.811Z,11.90
2022-11-03T07:08:43.319Z,12.90
2022-11-03T07:11:27.710Z,12.10
2022-11-03T07:14:31.825Z,12.30
2022-11-03T07:17:05.003Z,11.80
2022-11-03T07:19:45.275Z,11.60
2022-11-03T07:22:23.417Z,13.00
2022-11-03T07:24:59.305Z,12.10
2022-11-03T07:27:32.353Z,11.80
2022-11-03T07:30:22.870Z,9.80
2022-11-03T07:32:56.092Z,11.30
2022-11-03T07:36:14.962Z,11.30
2022-11-03T07:38:33.779Z,11.80
2022-11-03T07:41:01.644Z,10.90
2022-11-03T07:43:36.004Z,10.50
2022-11-03T07:46:05.878Z,10.10
2022-11-03T07:48:47.364Z,10.50
2022-11-03T07:51:30.065Z,10.70
2022-11-03T07:54:10.489Z,9.30
2022-11-03T07:57:00.427Z,9.20
2022-11-03T07:59:28.183Z,9.30
2022-11-03T08:01:57.799Z,8.50
2022-11-03T08:04:32.926Z,8.00
2022-11-03T08:07:00.848Z,9.20
2022-11-03T08:09:28.557Z,8.30
2022-11-03T08:11:56.333Z,7.70
2022-11-03T08:14:24.186Z,9.00
2022-11-03T08:16:51.908Z,8.60
2022-11-03T08:19:19.648Z,7.90
2022-11-03T08:21:47.485Z,7.80
2022-11-03T08:24:15.240Z,8.00
2022-11-03T08:26:43.107Z,7.80
2022-11-03T08:29:10.829Z,9.00
2022-11-03T08:31:38.636Z,8.00
2022-11-03T08:34:06.451Z,7.00
2022-11-03T08:36:34.264Z,6.80
2022-11-03T08:39:02.129Z,7.70
2022-11-03T08:41:31.076Z,7.00
2022-11-03T08:43:58.789Z,7.20
2022-11-03T08:46:26.650Z,7.40
2022-11-03T08:48:54.456Z,7.80
2022-11-03T08:51:22.178Z,6.80
2022-11-03T08:53:52.644Z,7.40
2022-11-03T08:56:22.564Z,7.60
2022-11-03T08:58:50.646Z,8.40
2022-11-03T09:01:18.888Z,9.40
2022-11-03T09:03:46.794Z,7.20
2022-11-03T09:06:14.810Z,6.30
2022-11-03T09:11:30.402Z,5.10
2022-11-03T09:13:58.196Z,5.30
2022-11-03T09:16:26.495Z,6.20
2022-11-03T09:18:54.636Z,5.60
2022-11-03T09:21:22.718Z,5.20
2022-11-03T09:23:50.548Z,6.30
2022-11-03T09:26:19.234Z,5.60
2022-11-03T09:28:49.459Z,5.20
2022-11-03T09:31:18.773Z,4.40
2022-11-03T09:33:46.620Z,4.70
2022-11-03T09:36:14.488Z,4.90
2022-11-03T09:38:42.255Z,4.30
2022-11-03T09:41:26.421Z,4.00
2022-11-03T09:43:58.357Z,4.90
2022-11-03T09:46:29.051Z,4.80
2022-11-03T09:48:57.085Z,3.80
2022-11-03T09:51:27.287Z,3.80
2022-11-03T09:54:02.245Z,3.50
2022-11-03T09:56:31.003Z,3.90
2022-11-03T09:58:59.998Z,3.80
2022-11-03T10:01:28.012Z,3.80
2022-11-03T10:03:59.639Z,4.00
2022-11-03T10:06:27.587Z,2.80
2022-11-03T10:08:56.146Z,3.00
2022-11-03T10:11:24.239Z,3.60
2022-11-03T10:13:56.343Z,3.10
2022-11-03T10:16:25.482Z,3.50
2022-11-03T10:18:53.685Z,3.70
2022-11-03T10:21:29.734Z,3.40
2022-11-03T10:23:57.447Z,3.40
2022-11-03T10:26:25.500Z,3.20
2022-11-03T10:29:05.065Z,3.30
2022-11-03T10:31:39.837Z,3.00
2022-11-03T10:34:39.520Z,3.60
2022-11-03T10:37:23.838Z,3.70
2022-11-03T10:39:54.798Z,3.80
2022-11-03T10:42:34.914Z,3.00
2022-11-03T10:45:21.922Z,4.70
2022-11-03T10:48:01.210Z,3.30
2022-11-03T10:50:29.816Z,3.60
2022-11-03T10:52:58.085Z,3.00
2022-11-03T10:55:27.071Z,3.10
2022-11-03T10:57:56.412Z,3.10
2022-11-03T11:00:24.981Z,3.50
2022-11-03T11:02:59.099Z,4.40
2022-11-03T11:05:27.540Z,4.30
2022-11-03T11:07:56.328Z,4.50
2022-11-03T11:10:27.134Z,3.80
2022-11-03T11:13:26.011Z,3.80
2022-11-03T11:15:59.895Z,3.50
2022-11-03T11:18:31.472Z,3.20
2022-11-03T11:21:01.731Z,3.00
2022-11-03T11:23:29.573Z,3.50
2022-11-03T11:26:10.772Z,3.70
2022-11-03T11:28:41.691Z,3.40
2022-11-03T11:31:27.651Z,2.90
2022-11-03T11:34:11.103Z,3.40
2022-11-03T11:36:41.974Z,2.90
2022-11-03T11:39:28.357Z,3.70
2022-11-03T11:42:19.954Z,4.30
2022-11-03T11:44:54.079Z,3.30
2022-11-03T11:47:31.763Z,4.70
2022-11-03T11:50:07.142Z,3.90
2022-11-03T11:52:53.821Z,3.80
2022-11-03T11:55:37.346Z,3.80
2022-11-03T12:00:36.204Z,4.00
2022-11-03T12:03:06.955Z,3.70
2022-11-03T12:05:39.267Z,3.80
2022-11-03T12:08:21.644Z,4.20
2022-11-03T12:11:04.427Z,4.00
2022-11-03T12:13:36.475Z,3.60
2022-11-03T12:16:05.548Z,3.70
2022-11-03T12:18:50.224Z,3.50
2022-11-03T12:21:46.709Z,3.70
2022-11-03T12:24:33.660Z,3.70
2022-11-03T12:27:03.915Z,3.70
2022-11-03T12:29:31.951Z,3.30
2022-11-03T12:32:00.200Z,3.60
2022-11-03T12:34:30.163Z,3.80
2022-11-03T12:36:58.707Z,4.10
2022-11-03T12:39:26.670Z,3.80
2022-11-03T12:41:54.637Z,3.70
2022-11-03T12:44:22.922Z,3.70
2022-11-03T12:46:51.003Z,3.70
2022-11-03T12:49:19.434Z,4.70
2022-11-03T12:51:47.156Z,3.80
2022-11-03T12:54:16.019Z,3.90
2022-11-03T12:56:44.621Z,4.30
2022-11-03T12:59:12.657Z,4.40
2022-11-03T13:01:40.749Z,4.50
2022-11-03T13:04:09.306Z,4.70
2022-11-03T13:06:37.088Z,5.80
2022-11-03T13:09:06.292Z,4.40
2022-11-03T13:11:53.572Z,4.40
2022-11-03T13:14:22.822Z,4.40
2022-11-03T13:16:50.766Z,3.80
2022-11-03T13:19:20.194Z,4.40
2022-11-03T13:21:49.192Z,4.10
2022-11-03T13:24:17.909Z,4.70
2022-11-03T13:26:45.854Z,4.70
2022-11-03T13:29:13.785Z,4.50
2022-11-03T13:31:42.707Z,4.40
2022-11-03T13:34:10.775Z,5.10
2022-11-03T13:36:39.465Z,4.20
2022-11-03T13:39:07.216Z,4.60
2022-11-03T13:41:35.192Z,4.30
2022-11-03T13:44:03.117Z,4.40
2022-11-03T13:46:31.129Z,4.60
2022-11-03T13:51:46.975Z,6.00
2022-11-03T13:59:52.123Z,5.80
2022-11-03T14:05:11.719Z,11.60
2022-11-03T14:07:40.478Z,9.40
2022-11-03T14:10:09.217Z,12.30
2022-11-03T14:12:37.270Z,10.30
2022-11-03T14:15:11.671Z,11.40
2022-11-03T14:17:40.763Z,8.70
2022-11-03T14:20:12.345Z,9.80
2022-11-03T14:22:41.212Z,11.80
2022-11-03T14:25:10.416Z,12.20
2022-11-03T14:27:38.565Z,7.40
2022-11-03T14:30:07.795Z,9.40
2022-11-03T14:32:35.789Z,9.50
2022-11-03T14:35:04.017Z,31.10
2022-11-03T14:37:34.100Z,21.10
2022-11-03T14:40:02.256Z,16.20
2022-11-03T14:42:29.967Z,17.50
2022-11-03T14:44:58.835Z,16.10
2022-11-03T14:47:26.851Z,19.90
2022-11-03T14:49:54.818Z,20.50
2022-11-03T14:52:22.760Z,19.20
2022-11-03T14:54:53.212Z,13.50
2022-11-03T14:57:21.129Z,27.90
2022-11-03T14:59:53.254Z,11.90
2022-11-03T15:02:21.500Z,11.50
2022-11-03T15:04:50.301Z,13.20
2022-11-03T15:07:18.027Z,12.90
2022-11-03T15:09:45.819Z,11.20
2022-11-03T15:12:13.568Z,10.40
2022-11-03T15:14:41.349Z,8.80
2022-11-03T15:17:09.074Z,8.70
2022-11-03T15:19:38.058Z,7.90
2022-11-03T15:22:06.013Z,8.30
2022-11-03T15:27:22.190Z,7.60
2022-11-03T15:29:49.924Z,8.70
2022-11-03T15:32:17.872Z,8.20
2022-11-03T15:34:45.583Z,9.20
2022-11-03T15:37:14.148Z,8.40
2022-11-03T15:39:43.057Z,8.10
2022-11-03T15:42:10.977Z,8.30
2022-11-03T15:44:38.931Z,9.20
2022-11-03T15:47:08.200Z,10.30
2022-11-03T15:49:37.307Z,10.60
2022-11-03T15:52:06.803Z,10.80
2022-11-03T15:54:38.436Z,12.80
2022-11-03T15:57:11.298Z,13.40
2022-11-03T15:59:41.130Z,12.10
2022-11-03T16:02:27.599Z,13.30
2022-11-03T16:04:58.522Z,14.20
2022-11-03T16:07:27.271Z,17.40
2022-11-03T16:09:57.060Z,17.80
2022-11-03T16:12:25.822Z,16.10
2022-11-03T16:14:54.991Z,16.50
2022-11-03T16:17:23.764Z,15.20
2022-11-03T16:19:51.775Z,15.80
2022-11-03T16:22:19.774Z,16.30
2022-11-03T16:24:48.776Z,16.60
2022-11-03T16:27:18.578Z,15.00
2022-11-03T16:29:48.461Z,16.10
2022-11-03T16:32:16.219Z,14.50
2022-11-03T16:34:45.643Z,15.50
2022-11-03T16:37:14.975Z,15.30
2022-11-03T16:39:43.955Z,15.20
2022-11-03T16:42:12.967Z,15.20
2022-11-03T16:44:40.945Z,16.40
2022-11-03T16:47:08.915Z,16.10
2022-11-03T16:49:42.294Z,16.90
2022-11-03T16:52:10.284Z,16.60
2022-11-03T16:54:39.138Z,15.00
2022-11-03T16:57:06.896Z,18.90
2022-11-03T16:59:35.163Z,20.00
2022-11-03T17:02:03.085Z,18.00
2022-11-03T17:04:34.001Z,18.80
2022-11-03T17:07:01.965Z,17.70
2022-11-03T17:09:29.903Z,18.00
2022-11-03T17:11:57.643Z,17.30
2022-11-03T17:14:25.366Z,17.00
2022-11-03T17:16:53.077Z,18.80
2022-11-03T17:19:22.246Z,20.10
2022-11-03T17:21:50.501Z,20.60
2022-11-03T17:24:19.242Z,21.50
2022-11-03T17:26:54.528Z,53.10
2022-11-03T17:29:36.865Z,27.70
2022-11-03T17:32:13.740Z,25.10
2022-11-03T17:34:41.549Z,27.00
2022-11-03T17:37:10.377Z,30.90
2022-11-03T17:39:42.185Z,29.30
2022-11-03T17:42:18.487Z,28.80
2022-11-03T17:44:49.561Z,31.00
2022-11-03T17:47:19.559Z,30.10
2022-11-03T17:49:48.796Z,28.00
2022-11-03T17:52:16.516Z,30.50
2022-11-03T17:54:45.048Z,30.70
2022-11-03T17:57:19.119Z,32.40
2022-11-03T17:59:50.967Z,37.90
2022-11-03T18:02:25.743Z,35.40
2022-11-03T18:05:20.316Z,36.90
2022-11-03T18:07:51.354Z,37.50
2022-11-03T18:10:20.476Z,40.40
2022-11-03T18:13:10.974Z,38.30
2022-11-03T18:15:41.510Z,33.90
2022-11-03T18:18:14.930Z,33.90
2022-11-03T18:20:52.921Z,35.40
2022-11-03T18:23:26.767Z,33.10
2022-11-03T18:25:54.567Z,33.70
2022-11-03T18:28:22.458Z,35.50
2022-11-03T18:30:54.550Z,31.80
2022-11-03T18:33:30.355Z,33.70
2022-11-03T18:36:03.186Z,33.40
2022-11-03T18:38:31.189Z,32.80
2022-11-03T18:40:59.182Z,33.00
2022-11-03T18:43:29.681Z,33.00
2022-11-03T18:45:57.480Z,33.50
2022-11-03T18:48:25.213Z,33.80
2022-11-03T18:50:57.234Z,34.90
2022-11-03T18:53:26.927Z,29.90
2022-11-03T18:56:00.633Z,29.20
2022-11-03T18:58:28.483Z,27.70
2022-11-03T19:00:57.121Z,25.70
2022-11-03T19:03:25.118Z,26.60
2022-11-03T19:05:54.032Z,23.40
2022-11-03T19:08:32.728Z,22.90
2022-11-03T19:11:04.520Z,23.10
2022-11-03T19:13:46.860Z,22.20
2022-11-03T19:16:22.864Z,23.40
2022-11-03T19:18:52.577Z,23.20
2022-11-03T19:21:24.314Z,23.60
2022-11-03T19:23:58.144Z,21.00
2022-11-03T19:26:34.620Z,21.50
2022-11-03T19:29:19.127Z,22.30
2022-11-03T19:31:50.210Z,21.50
2022-11-03T19:34:27.942Z,21.20
2022-11-03T19:36:58.088Z,18.70
2022-11-03T19:39:37.024Z,20.60
2022-11-03T19:42:30.427Z,21.30
2022-11-03T19:45:01.130Z,19.50
2022-11-03T19:47:41.787Z,20.80
2022-11-03T19:50:26.645Z,19.70
2022-11-03T19:53:03.359Z,18.50
2022-11-03T19:55:35.482Z,18.60
2022-11-03T19:58:14.333Z,19.60
2022-11-03T20:00:45.208Z,18.80
2022-11-03T20:03:14.712Z,18.30
2022-11-03T20:05:49.291Z,19.40
2022-11-03T20:08:22.946Z,18.60
2022-11-03T20:10:51.765Z,18.10
2022-11-03T20:13:25.942Z,17.80
2022-11-03T20:16:00.631Z,18.20
2022-11-03T20:18:30.311Z,18.40
2022-11-03T20:20:59.133Z,18.00
2022-11-03T20:23:31.569Z,18.80
2022-11-03T20:26:00.753Z,16.40
2022-11-03T20:28:32.552Z,17.40
2022-11-03T20:31:03.122Z,16.10
2022-11-03T20:33:30.947Z,16.60
2022-11-03T20:35:59.980Z,15.80
2022-11-03T20:38:29.131Z,14.20
2022-11-03T20:41:02.089Z,14.40
2022-11-03T20:43:38.607Z,17.70
2022-11-03T20:46:34.514Z,15.40
2022-11-03T20:49:02.641Z,17.30
2022-11-03T20:51:34.601Z,22.20
2022-11-03T20:54:11.827Z,16.10
2022-11-03T20:56:39.814Z,15.10
2022-11-03T20:59:11.427Z,14.50
2022-11-03T21:01:41.228Z,14.20
2022-11-03T21:04:17.501Z,14.40
2022-11-03T21:06:46.624Z,13.60
2022-11-03T21:09:19.174Z,13.20
2022-11-03T21:11:52.586Z,12.50
2022-11-03T21:14:33.890Z,11.90
2022-11-03T21:17:20.587Z,12.10
2022-11-03T21:20:03.813Z,13.10
2022-11-03T21:22:54.417Z,13.20
2022-11-03T21:25:25.134Z,12.90
2022-11-03T21:27:54.995Z,12.80
2022-11-03T21:30:24.195Z,13.40
2022-11-03T21:32:52.238Z,11.50
2022-11-03T21:35:22.215Z,12.30
2022-11-03T21:37:50.180Z,12.00
2022-11-03T21:40:18.346Z,12.40
2022-11-03T21:43:05.863Z,12.10
2022-11-03T21:45:33.683Z,15.30
2022-11-03T21:48:21.557Z,14.30
2022-11-03T21:50:50.693Z,13.80
2022-11-03T21:53:18.663Z,13.70
2022-11-03T21:55:50.323Z,12.30
2022-11-03T21:58:18.971Z,12.00
2022-11-03T22:00:48.328Z,12.80
2022-11-03T22:03:16.855Z,12.60
2022-11-03T22:05:44.846Z,13.10
2022-11-03T22:08:13.704Z,13.50
2022-11-03T22:10:41.957Z,12.60
2022-11-03T22:13:11.308Z,13.40
2022-11-03T22:15:59.918Z,13.90
2022-11-03T22:18:27.658Z,14.10
2022-11-03T22:21:17.174Z,13.80
2022-11-03T22:24:13.882Z,13.20
2022-11-03T22:26:56.929Z,13.30
2022-11-03T22:29:48.137Z,14.30
2022-11-03T22:32:16.165Z,16.60
2022-11-03T22:35:04.097Z,14.40
2022-11-03T22:40:19.067Z,13.90
2022-11-03T22:43:05.773Z,13.90
2022-11-03T22:45:55.776Z,13.50
2022-11-03T22:48:26.476Z,11.70
2022-11-03T22:51:01.499Z,11.60
2022-11-03T22:53:51.060Z,11.30
2022-11-03T22:56:20.567Z,11.70
2022-11-03T22:58:48.554Z,11.30
2022-11-03T23:01:22.962Z,11.80
2022-11-03T23:03:51.080Z,12.20
2022-11-03T23:06:25.900Z,13.40
2022-11-03T23:08:55.765Z,12.80
2022-11-03T23:11:33.329Z,12.60
2022-11-03T23:14:10.480Z,13.60
2022-11-03T23:16:42.438Z,12.00
2022-11-03T23:19:32.971Z,12.70
2022-11-03T23:22:01.944Z,12.50
2022-11-03T23:24:48.857Z,11.80
2022-11-03T23:27:16.584Z,12.30
2022-11-03T23:29:44.264Z,12.10
2022-11-03T23:32:12.841Z,12.90
2022-11-03T23:34:40.783Z,13.10
2022-11-03T23:37:08.747Z,11.80
2022-11-03T23:39:36.680Z,12.20
2022-11-03T23:42:04.827Z,12.40
2022-11-03T23:44:52.732Z,11.70
2022-11-03T23:47:39.005Z,11.00
2022-11-03T23:50:07.994Z,11.50
2022-11-03T23:52:35.939Z,11.60
2022-11-03T23:55:04.763Z,12.60
2022-11-03T23:57:51.380Z,12.20
